Time;durP1;ratioP1;P1;durP2;ratioP2;P2;SDS_P1;SDS_P2;PMS_P1;PMS_P2;Temp;Humidity;BMP_temperature;BMP_pressure;BME280_temperature;BME280_humidity;BME280_pressure;Samples;Min_cycle;Max_cycle;Signal;HPM_P1;HPM_P2
2021/10/06 00:00:29;;;;;;;;;;;10.80;99.90;;;;;;5073476;28;19919;-75
2021/10/06 00:02:55;;;;;;;;;;;10.80;99.90;;;;;;5073793;28;19946;-75
2021/10/06 00:05:21;;;;;;;;;;;10.90;99.90;;;;;;5075388;28;20254;-75
2021/10/06 00:07:46;;;;;;;;;;;10.80;99.90;;;;;;5078421;28;19978;-75
2021/10/06 00:10:12;;;;;;;;;;;10.90;99.90;;;;;;5075122;28;19916;-75
2021/10/06 00:12:38;;;;;;;;;;;10.90;99.90;;;;;;5091552;28;20301;-76
2021/10/06 00:15:05;;;;;;;;;;;10.90;99.90;;;;;;5074392;28;19921;-76
2021/10/06 00:17:31;;;;;;;;;;;11.00;99.90;;;;;;5073933;28;19912;-76
2021/10/06 00:19:57;;;;;;;;;;;11.00;99.90;;;;;;5082123;28;19970;-75
2021/10/06 00:22:22;;;;;;;;;;;11.00;99.90;;;;;;5073666;28;19940;-76
2021/10/06 00:24:48;;;;;;;;;;;11.00;99.90;;;;;;5074648;28;19967;-75
2021/10/06 00:27:14;;;;;;;;;;;10.90;99.90;;;;;;5111784;27;20314;-75
2021/10/06 00:29:39;;;;;;;;;;;10.90;99.90;;;;;;5080762;28;20003;-75
2021/10/06 00:32:05;;;;;;;;;;;10.90;99.90;;;;;;5076668;28;19923;-75
2021/10/06 00:34:31;;;;;;;;;;;10.90;99.90;;;;;;5086622;28;20041;-75
2021/10/06 00:36:56;;;;;;;;;;;11.00;99.90;;;;;;5094574;28;19995;-75
2021/10/06 00:39:22;;;;;;;;;;;11.00;99.90;;;;;;5088569;28;19939;-75
2021/10/06 00:41:47;;;;;;;;;;;11.00;99.90;;;;;;5077639;28;19916;-75
2021/10/06 00:44:14;;;;;;;;;;;11.00;99.90;;;;;;5081197;28;20479;-75
2021/10/06 00:46:40;;;;;;;;;;;11.00;99.90;;;;;;5066397;28;19915;-75
2021/10/06 00:49:05;;;;;;;;;;;11.00;99.90;;;;;;5075266;28;19908;-75
2021/10/06 00:51:31;;;;;;;;;;;11.00;99.90;;;;;;5087555;28;19908;-75
2021/10/06 00:53:59;;;;;;;;;;;11.00;99.90;;;;;;5075922;28;19909;-76
2021/10/06 00:56:24;;;;;;;;;;;11.00;99.90;;;;;;5075462;28;20311;-75
2021/10/06 00:58:50;;;;;;;;;;;11.00;99.90;;;;;;5067518;28;19919;-75
2021/10/06 01:01:16;;;;;;;;;;;11.00;99.90;;;;;;5073445;28;19908;-74
2021/10/06 01:03:41;;;;;;;;;;;10.90;99.90;;;;;;5075645;28;20215;-74
2021/10/06 01:06:07;;;;;;;;;;;11.00;99.90;;;;;;5088026;28;19913;-74
2021/10/06 01:08:34;;;;;;;;;;;11.00;99.90;;;;;;5087252;28;19916;-75
2021/10/06 01:11:00;;;;;;;;;;;11.00;99.90;;;;;;5074548;28;20279;-75
2021/10/06 01:13:26;;;;;;;;;;;11.00;99.90;;;;;;5064035;28;19996;-75
2021/10/06 01:15:51;;;;;;;;;;;11.00;99.90;;;;;;5077704;28;19912;-75
2021/10/06 01:18:17;;;;;;;;;;;11.00;99.90;;;;;;5072550;28;19908;-75
2021/10/06 01:20:43;;;;;;;;;;;10.90;99.90;;;;;;5075412;28;19917;-75
2021/10/06 01:23:08;;;;;;;;;;;11.00;99.90;;;;;;5074183;28;19923;-75
2021/10/06 01:25:34;;;;;;;;;;;10.90;99.90;;;;;;5074455;28;19962;-76
2021/10/06 01:27:59;;;;;;;;;;;10.90;99.90;;;;;;5073605;28;19917;-74
2021/10/06 01:30:25;;;;;;;;;;;10.90;99.90;;;;;;5071840;28;20227;-74
2021/10/06 01:32:51;;;;;;;;;;;10.80;99.90;;;;;;5069810;28;19931;-74
2021/10/06 01:35:16;;;;;;;;;;;10.80;99.90;;;;;;5084629;28;19909;-74
2021/10/06 01:37:42;;;;;;;;;;;10.80;99.90;;;;;;5075020;28;19919;-75
2021/10/06 01:40:13;;;;;;;;;;;10.80;99.90;;;;;;5077623;28;19962;-76
2021/10/06 01:42:38;;;;;;;;;;;10.70;99.90;;;;;;5095292;28;19912;-75
2021/10/06 01:45:04;;;;;;;;;;;10.70;99.90;;;;;;5090090;28;20291;-76
2021/10/06 01:47:30;;;;;;;;;;;10.70;99.90;;;;;;5080202;28;19931;-75
2021/10/06 01:49:55;;;;;;;;;;;10.70;99.90;;;;;;5080861;28;19912;-75
2021/10/06 01:52:22;;;;;;;;;;;10.70;99.90;;;;;;5081790;28;19916;-74
2021/10/06 01:54:50;;;;;;;;;;;10.70;99.90;;;;;;5074935;28;19921;-74
2021/10/06 01:57:16;;;;;;;;;;;10.70;99.90;;;;;;5073615;28;19908;-74
2021/10/06 01:59:43;;;;;;;;;;;10.60;99.90;;;;;;5073573;28;19919;-75
2021/10/06 02:02:09;;;;;;;;;;;10.60;99.90;;;;;;5083664;28;19955;-75
2021/10/06 02:04:35;;;;;;;;;;;10.60;99.90;;;;;;5082429;28;19959;-75
2021/10/06 02:07:00;;;;;;;;;;;10.60;99.90;;;;;;5086616;28;19916;-75
2021/10/06 02:09:26;;;;;;;;;;;10.60;99.90;;;;;;5080888;28;20021;-75
2021/10/06 02:11:51;;;;;;;;;;;10.60;99.90;;;;;;5068774;28;19920;-75
2021/10/06 02:14:17;;;;;;;;;;;10.60;99.90;;;;;;5070144;28;19920;-75
2021/10/06 02:16:43;;;;;;;;;;;10.60;99.90;;;;;;5069833;28;19908;-74
2021/10/06 02:19:08;;;;;;;;;;;10.50;99.90;;;;;;5068912;28;20337;-73
2021/10/06 02:21:34;;;;;;;;;;;10.50;99.90;;;;;;5066168;28;19917;-74
2021/10/06 02:24:00;;;;;;;;;;;10.60;99.90;;;;;;5057975;28;19928;-75
2021/10/06 02:26:26;;;;;;;;;;;10.60;99.90;;;;;;5062798;28;19920;-75
2021/10/06 02:28:51;;;;;;;;;;;10.50;99.90;;;;;;5071547;28;19959;-75
2021/10/06 02:31:17;;;;;;;;;;;10.50;99.90;;;;;;5063368;28;19912;-76
2021/10/06 02:33:43;;;;;;;;;;;10.50;99.90;;;;;;5067135;28;19913;-75
2021/10/06 02:36:08;;;;;;;;;;;10.50;99.90;;;;;;5062472;28;19924;-75
2021/10/06 02:38:34;;;;;;;;;;;10.50;99.90;;;;;;5069415;28;20003;-75
2021/10/06 02:40:59;;;;;;;;;;;10.60;99.90;;;;;;5079544;28;20011;-76
2021/10/06 02:43:25;;;;;;;;;;;10.50;99.90;;;;;;5068917;28;19959;-74
2021/10/06 02:45:51;;;;;;;;;;;10.60;99.90;;;;;;5067042;28;20321;-76
2021/10/06 02:48:16;;;;;;;;;;;10.60;99.90;;;;;;5069398;28;20012;-74
2021/10/06 02:50:42;;;;;;;;;;;10.60;99.90;;;;;;5072068;28;19913;-74
2021/10/06 02:53:07;;;;;;;;;;;10.60;99.90;;;;;;5077009;28;19912;-74
2021/10/06 02:55:34;;;;;;;;;;;10.60;99.90;;;;;;5073350;28;19913;-74
2021/10/06 02:57:59;;;;;;;;;;;10.60;99.90;;;;;;5067032;28;19912;-73
2021/10/06 03:00:25;;;;;;;;;;;10.60;99.90;;;;;;5077175;28;19921;-74
2021/10/06 03:02:51;;;;;;;;;;;10.60;99.90;;;;;;5076639;28;19912;-74
2021/10/06 03:05:16;;;;;;;;;;;10.60;99.90;;;;;;5076249;28;20021;-74
2021/10/06 03:07:42;;;;;;;;;;;10.70;99.90;;;;;;5076374;28;19912;-74
2021/10/06 03:10:09;;;;;;;;;;;10.70;99.90;;;;;;5105350;27;19916;-74
2021/10/06 03:12:35;;;;;;;;;;;10.70;99.90;;;;;;5077811;28;19917;-75
2021/10/06 03:15:00;;;;;;;;;;;10.70;99.90;;;;;;5082456;28;19916;-74
2021/10/06 03:17:26;;;;;;;;;;;10.70;99.90;;;;;;5085945;28;19928;-74
2021/10/06 03:19:52;;;;;;;;;;;10.70;99.90;;;;;;5085266;28;20219;-73
2021/10/06 03:22:17;;;;;;;;;;;10.70;99.90;;;;;;5086572;28;20206;-73
2021/10/06 03:24:43;;;;;;;;;;;10.70;99.90;;;;;;5083000;28;19946;-73
2021/10/06 03:27:08;;;;;;;;;;;10.70;99.90;;;;;;5085774;28;20257;-73
2021/10/06 03:29:34;;;;;;;;;;;10.60;99.90;;;;;;5085927;28;20006;-73
2021/10/06 03:32:00;;;;;;;;;;;10.60;99.90;;;;;;5085645;28;19923;-73
2021/10/06 03:34:25;;;;;;;;;;;10.60;99.90;;;;;;5085518;28;19919;-73
2021/10/06 03:36:51;;;;;;;;;;;10.50;99.90;;;;;;5086092;28;20303;-74
2021/10/06 03:39:17;;;;;;;;;;;10.50;99.90;;;;;;5081362;28;20292;-73
2021/10/06 03:41:42;;;;;;;;;;;10.50;99.90;;;;;;5086068;28;19920;-73
2021/10/06 03:44:08;;;;;;;;;;;10.40;99.90;;;;;;5086444;28;19919;-75
2021/10/06 03:46:34;;;;;;;;;;;10.40;99.90;;;;;;5085687;28;19916;-73
2021/10/06 03:48:59;;;;;;;;;;;10.40;99.90;;;;;;5086794;28;19924;-73
2021/10/06 03:51:25;;;;;;;;;;;10.40;99.90;;;;;;5084674;28;19912;-75
2021/10/06 03:53:51;;;;;;;;;;;10.40;99.90;;;;;;5085425;28;19995;-73
2021/10/06 03:56:16;;;;;;;;;;;10.40;99.90;;;;;;5085863;28;19912;-72
2021/10/06 03:58:42;;;;;;;;;;;10.40;99.90;;;;;;5082379;28;19920;-73
2021/10/06 04:01:07;;;;;;;;;;;10.50;99.90;;;;;;5085366;28;19920;-72
2021/10/06 04:03:33;;;;;;;;;;;10.50;99.90;;;;;;5085934;28;20610;-72
2021/10/06 04:05:58;;;;;;;;;;;10.50;99.90;;;;;;5083869;28;19923;-72
2021/10/06 04:08:25;;;;;;;;;;;10.50;99.90;;;;;;5086067;28;20311;-73
2021/10/06 04:10:50;;;;;;;;;;;10.50;99.90;;;;;;5083697;28;19912;-73
2021/10/06 04:13:16;;;;;;;;;;;10.50;99.90;;;;;;5101797;28;20384;-73
2021/10/06 04:15:42;;;;;;;;;;;10.50;99.90;;;;;;5084363;28;19920;-73
2021/10/06 04:18:07;;;;;;;;;;;10.50;99.90;;;;;;5082931;28;19921;-72
2021/10/06 04:20:33;;;;;;;;;;;10.50;99.90;;;;;;5085048;28;19916;-73
2021/10/06 04:22:59;;;;;;;;;;;10.50;99.90;;;;;;5084932;28;19923;-73
2021/10/06 04:25:24;;;;;;;;;;;10.50;99.90;;;;;;5084127;28;19924;-72
2021/10/06 04:27:50;;;;;;;;;;;10.50;99.90;;;;;;5080346;28;19916;-73
2021/10/06 04:30:15;;;;;;;;;;;10.50;99.90;;;;;;5082222;28;20311;-72
2021/10/06 04:32:41;;;;;;;;;;;10.50;99.90;;;;;;5079689;28;21031;-73
2021/10/06 04:35:08;;;;;;;;;;;10.50;99.90;;;;;;5096235;28;19919;-73
2021/10/06 04:37:33;;;;;;;;;;;10.50;99.90;;;;;;5080904;28;20211;-73
2021/10/06 04:39:59;;;;;;;;;;;10.50;99.90;;;;;;5080219;28;19917;-73
2021/10/06 04:42:24;;;;;;;;;;;10.50;99.90;;;;;;5083394;28;19912;-73
2021/10/06 04:44:50;;;;;;;;;;;10.50;99.90;;;;;;5081947;28;19919;-74
2021/10/06 04:47:16;;;;;;;;;;;10.50;99.90;;;;;;5082549;28;19916;-72
2021/10/06 04:49:41;;;;;;;;;;;10.40;99.90;;;;;;5084041;28;20235;-73
2021/10/06 04:52:07;;;;;;;;;;;10.40;99.90;;;;;;5084123;28;19912;-73
2021/10/06 04:54:32;;;;;;;;;;;10.40;99.90;;;;;;5083427;28;19971;-73
2021/10/06 04:56:58;;;;;;;;;;;10.40;99.90;;;;;;5081963;28;19920;-73
2021/10/06 04:59:23;;;;;;;;;;;10.40;99.90;;;;;;5083834;28;20010;-73
2021/10/06 05:01:49;;;;;;;;;;;10.40;99.90;;;;;;5076559;28;20273;-73
2021/10/06 05:04:15;;;;;;;;;;;10.40;99.90;;;;;;5082560;28;19928;-73
2021/10/06 05:06:41;;;;;;;;;;;10.40;99.90;;;;;;5065189;28;19920;-73
2021/10/06 05:09:06;;;;;;;;;;;10.40;99.90;;;;;;5074033;28;19916;-72
2021/10/06 05:11:32;;;;;;;;;;;10.40;99.90;;;;;;5074097;28;19908;-72
2021/10/06 05:13:58;;;;;;;;;;;10.40;99.90;;;;;;5073832;28;20327;-73
2021/10/06 05:16:24;;;;;;;;;;;10.40;99.90;;;;;;5074826;28;19957;-72
2021/10/06 05:18:50;;;;;;;;;;;10.40;99.90;;;;;;5076610;28;20303;-72
2021/10/06 05:21:15;;;;;;;;;;;10.40;99.90;;;;;;5065590;28;19915;-73
2021/10/06 05:23:41;;;;;;;;;;;10.50;99.90;;;;;;5073901;28;19921;-73
2021/10/06 05:26:07;;;;;;;;;;;10.50;99.90;;;;;;5073583;28;19908;-74
2021/10/06 05:28:32;;;;;;;;;;;10.50;99.90;;;;;;5060412;28;20876;-73
2021/10/06 05:30:58;;;;;;;;;;;10.50;99.90;;;;;;5058594;28;19912;-73
2021/10/06 05:33:24;;;;;;;;;;;10.60;99.90;;;;;;5059420;28;19913;-73
2021/10/06 05:35:49;;;;;;;;;;;10.60;99.90;;;;;;5064542;28;20554;-73
2021/10/06 05:38:15;;;;;;;;;;;10.60;99.90;;;;;;5068736;28;19917;-73
2021/10/06 05:40:40;;;;;;;;;;;10.60;99.90;;;;;;5072163;28;19954;-74
2021/10/06 05:43:10;;;;;;;;;;;10.60;99.90;;;;;;5071168;28;19909;-73
2021/10/06 05:45:36;;;;;;;;;;;10.70;99.90;;;;;;5068465;28;19957;-74
2021/10/06 05:48:01;;;;;;;;;;;10.70;99.90;;;;;;5070255;28;19916;-75
2021/10/06 05:50:27;;;;;;;;;;;10.80;99.90;;;;;;5101491;27;20321;-75
2021/10/06 05:52:57;;;;;;;;;;;10.80;99.90;;;;;;5065279;28;19917;-73
2021/10/06 05:55:22;;;;;;;;;;;10.80;99.90;;;;;;5078392;28;19912;-74
2021/10/06 05:57:48;;;;;;;;;;;10.90;99.90;;;;;;5088544;28;19927;-74
2021/10/06 06:00:14;;;;;;;;;;;11.00;99.90;;;;;;5081440;28;19920;-73
2021/10/06 06:02:46;;;;;;;;;;;10.90;99.90;;;;;;5080163;28;19955;-75
2021/10/06 06:05:12;;;;;;;;;;;11.00;99.90;;;;;;5073942;28;19912;-74
2021/10/06 06:07:38;;;;;;;;;;;11.00;99.90;;;;;;5077840;28;19964;-74
2021/10/06 06:10:03;;;;;;;;;;;11.00;99.90;;;;;;5073368;28;19956;-75
2021/10/06 06:12:29;;;;;;;;;;;11.10;99.90;;;;;;5059451;28;20013;-75
2021/10/06 06:14:55;;;;;;;;;;;11.10;99.90;;;;;;5073830;28;19921;-75
2021/10/06 06:17:20;;;;;;;;;;;11.10;99.90;;;;;;5075422;28;19917;-75
2021/10/06 06:19:46;;;;;;;;;;;11.10;99.90;;;;;;5082064;28;20321;-75
2021/10/06 06:22:11;;;;;;;;;;;11.10;99.90;;;;;;5065837;28;19909;-76
2021/10/06 06:24:37;;;;;;;;;;;11.10;99.90;;;;;;5077467;28;20329;-76
2021/10/06 06:27:04;;;;;;;;;;;11.10;99.90;;;;;;5078262;28;19913;-75
2021/10/06 06:29:30;;;;;;;;;;;11.10;99.90;;;;;;5077428;28;19915;-75
2021/10/06 06:31:56;;;;;;;;;;;11.00;99.90;;;;;;5077716;28;19917;-76
2021/10/06 06:34:23;;;;;;;;;;;11.00;99.90;;;;;;5077200;28;19912;-76
2021/10/06 06:36:49;;;;;;;;;;;11.00;99.90;;;;;;5067871;28;19912;-75
2021/10/06 06:39:14;;;;;;;;;;;11.00;99.90;;;;;;5075423;28;20381;-75
2021/10/06 06:41:40;;;;;;;;;;;11.00;99.90;;;;;;5074850;28;19912;-76
2021/10/06 06:44:06;;;;;;;;;;;10.90;99.90;;;;;;5068399;28;20311;-75
2021/10/06 06:46:31;;;;;;;;;;;10.90;99.90;;;;;;5065321;28;20315;-76
2021/10/06 06:48:57;;;;;;;;;;;11.00;99.90;;;;;;5068548;28;20223;-75
2021/10/06 06:51:22;;;;;;;;;;;10.90;99.90;;;;;;5065665;28;19973;-75
2021/10/06 06:53:49;;;;;;;;;;;11.00;99.90;;;;;;5074231;28;20050;-75
2021/10/06 06:56:15;;;;;;;;;;;11.00;99.90;;;;;;5067325;28;19913;-75
2021/10/06 06:58:40;;;;;;;;;;;11.00;99.90;;;;;;5066920;28;20223;-73
2021/10/06 07:01:06;;;;;;;;;;;11.00;99.90;;;;;;5062265;28;19912;-73
2021/10/06 07:03:31;;;;;;;;;;;11.00;99.90;;;;;;5083263;28;20731;-74
2021/10/06 07:05:57;;;;;;;;;;;11.00;99.90;;;;;;5071747;28;19916;-74
2021/10/06 07:08:22;;;;;;;;;;;11.00;99.90;;;;;;5069493;28;19923;-73
2021/10/06 07:10:48;;;;;;;;;;;11.00;99.90;;;;;;5083034;28;20436;-73
2021/10/06 07:13:14;;;;;;;;;;;10.90;99.90;;;;;;5080680;28;20242;-73
2021/10/06 07:15:39;;;;;;;;;;;10.90;99.90;;;;;;5079679;28;20030;-73
2021/10/06 07:18:05;;;;;;;;;;;10.90;99.90;;;;;;5081157;28;19916;-73
2021/10/06 07:20:30;;;;;;;;;;;10.90;99.90;;;;;;5082987;28;19999;-73
2021/10/06 07:22:56;;;;;;;;;;;10.90;99.90;;;;;;5083220;28;19917;-73
2021/10/06 07:25:21;;;;;;;;;;;10.90;99.90;;;;;;5080979;28;19928;-73
2021/10/06 07:27:47;;;;;;;;;;;10.90;99.90;;;;;;5078111;28;20337;-73
2021/10/06 07:30:13;;;;;;;;;;;11.00;99.90;;;;;;5084612;28;19920;-74
2021/10/06 07:32:39;;;;;;;;;;;11.00;99.90;;;;;;5074667;28;20330;-74
2021/10/06 07:35:05;;;;;;;;;;;11.00;99.90;;;;;;5080711;28;20334;-74
2021/10/06 07:37:30;;;;;;;;;;;10.90;99.90;;;;;;5085058;28;20226;-74
2021/10/06 07:39:56;;;;;;;;;;;11.00;99.90;;;;;;5081435;28;20007;-74
2021/10/06 07:42:21;;;;;;;;;;;11.00;99.90;;;;;;5079744;28;19916;-75
2021/10/06 07:44:47;;;;;;;;;;;11.00;99.90;;;;;;5076304;28;19923;-75
2021/10/06 07:47:13;;;;;;;;;;;11.00;99.90;;;;;;5076380;28;19932;-74
2021/10/06 07:49:38;;;;;;;;;;;11.00;99.90;;;;;;5084752;28;19920;-75
2021/10/06 07:52:04;;;;;;;;;;;11.00;99.90;;;;;;5094798;28;19916;-75
2021/10/06 07:54:30;;;;;;;;;;;11.10;99.90;;;;;;5083175;28;19918;-75
2021/10/06 07:56:55;;;;;;;;;;;11.00;99.90;;;;;;5084541;28;20307;-75
2021/10/06 07:59:21;;;;;;;;;;;11.00;99.90;;;;;;5085263;28;20331;-74
2021/10/06 08:01:47;;;;;;;;;;;11.00;99.90;;;;;;5084416;28;19924;-75
2021/10/06 08:04:12;;;;;;;;;;;11.30;99.90;;;;;;5082808;28;19919;-74
2021/10/06 08:06:38;;;;;;;;;;;12.60;99.90;;;;;;5079523;28;19916;-75
2021/10/06 08:09:05;;;;;;;;;;;13.90;99.90;;;;;;5065957;28;20265;-75
2021/10/06 08:11:31;;;;;;;;;;;15.10;99.90;;;;;;5065438;28;20020;-75
2021/10/06 08:13:56;;;;;;;;;;;16.20;99.90;;;;;;5076726;28;20073;-75
2021/10/06 08:16:22;;;;;;;;;;;17.00;99.90;;;;;;5074534;28;19931;-75
2021/10/06 08:18:47;;;;;;;;;;;17.60;99.90;;;;;;5068011;28;19919;-75
2021/10/06 08:21:13;;;;;;;;;;;17.80;99.90;;;;;;5060056;28;20007;-75
2021/10/06 08:23:39;;;;;;;;;;;17.90;99.90;;;;;;5068581;28;19946;-75
2021/10/06 08:26:04;;;;;;;;;;;18.10;99.90;;;;;;5071002;28;19999;-75
2021/10/06 08:28:30;;;;;;;;;;;18.00;99.90;;;;;;5067894;28;19916;-76
2021/10/06 08:30:56;;;;;;;;;;;17.30;99.90;;;;;;5073823;28;19916;-75
2021/10/06 08:33:21;;;;;;;;;;;16.50;99.90;;;;;;5075527;28;19909;-75
2021/10/06 08:35:47;;;;;;;;;;;15.70;99.90;;;;;;5074831;28;19995;-75
2021/10/06 08:38:13;;;;;;;;;;;15.00;99.90;;;;;;5072819;28;20011;-75
2021/10/06 08:40:39;;;;;;;;;;;14.60;99.90;;;;;;5071515;28;19924;-75
2021/10/06 08:43:08;;;;;;;;;;;14.50;99.90;;;;;;5081358;28;19917;-75
2021/10/06 08:45:36;;;;;;;;;;;14.50;99.90;;;;;;5080886;28;20003;-75
2021/10/06 08:48:02;;;;;;;;;;;14.30;99.90;;;;;;5083444;28;19924;-77
2021/10/06 08:50:28;;;;;;;;;;;14.30;99.90;;;;;;5083504;28;19916;-76
2021/10/06 08:52:54;;;;;;;;;;;14.10;99.90;;;;;;5084905;28;19923;-75
2021/10/06 08:55:27;;;;;;;;;;;14.00;99.90;;;;;;5083008;28;20231;-75
2021/10/06 08:57:54;;;;;;;;;;;13.80;99.90;;;;;;5081621;28;19966;-75
2021/10/06 09:00:20;;;;;;;;;;;13.60;99.90;;;;;;5082117;28;19920;-75
2021/10/06 09:02:46;;;;;;;;;;;13.50;99.90;;;;;;5083645;28;19965;-75
2021/10/06 09:05:12;;;;;;;;;;;13.40;99.90;;;;;;5083698;28;19912;-75
2021/10/06 09:07:56;;;;;;;;;;;13.30;99.90;;;;;;5083506;28;19916;-75
2021/10/06 09:10:23;;;;;;;;;;;13.50;99.90;;;;;;5082987;28;19912;-75
2021/10/06 09:12:58;;;;;;;;;;;14.60;99.90;;;;;;5083858;28;20240;-76
2021/10/06 09:15:24;;;;;;;;;;;15.20;99.90;;;;;;5081189;28;19912;-76
2021/10/06 09:17:58;;;;;;;;;;;15.50;99.90;;;;;;5080481;28;19999;-75
2021/10/06 09:20:33;;;;;;;;;;;15.30;99.90;;;;;;5081615;28;20204;-76
2021/10/06 09:23:00;;;;;;;;;;;15.10;99.90;;;;;;5082168;28;20346;-75
2021/10/06 09:25:31;;;;;;;;;;;14.90;99.90;;;;;;5083236;28;19931;-75
2021/10/06 09:27:57;;;;;;;;;;;14.70;99.90;;;;;;5082939;28;19916;-75
2021/10/06 09:30:24;;;;;;;;;;;14.60;99.90;;;;;;5071097;28;19912;-75
2021/10/06 09:32:49;;;;;;;;;;;14.50;99.90;;;;;;5077098;28;19940;-76
2021/10/06 09:35:19;;;;;;;;;;;14.50;99.90;;;;;;5068706;28;19983;-75
2021/10/06 09:37:46;;;;;;;;;;;14.50;99.90;;;;;;5061966;28;19920;-75
2021/10/06 09:40:12;;;;;;;;;;;14.40;99.90;;;;;;5066761;28;20306;-76
2021/10/06 09:42:45;;;;;;;;;;;14.20;99.90;;;;;;5082286;28;19953;-76
2021/10/06 09:45:19;;;;;;;;;;;13.90;99.90;;;;;;5089296;28;20024;-75
2021/10/06 09:48:17;;;;;;;;;;;13.60;99.90;;;;;;5073638;28;19919;-75
2021/10/06 09:50:45;;;;;;;;;;;13.50;99.90;;;;;;5049777;28;19974;-75
2021/10/06 09:53:14;;;;;;;;;;;13.30;99.90;;;;;;5066903;28;19908;-74
2021/10/06 09:55:40;;;;;;;;;;;13.20;99.90;;;;;;5053839;28;19942;-74
2021/10/06 09:58:07;;;;;;;;;;;13.10;99.90;;;;;;5065134;28;19959;-75
2021/10/06 10:00:33;;;;;;;;;;;13.00;99.90;;;;;;5047724;28;20008;-75
2021/10/06 10:02:59;;;;;;;;;;;13.00;99.90;;;;;;5045304;28;19963;-75
2021/10/06 10:05:25;;;;;;;;;;;13.00;99.90;;;;;;5044356;28;19963;-74
2021/10/06 10:07:53;;;;;;;;;;;13.10;99.90;;;;;;5046612;28;19916;-75
2021/10/06 10:10:19;;;;;;;;;;;13.20;99.90;;;;;;5044251;28;19971;-75
2021/10/06 10:12:45;;;;;;;;;;;13.30;99.90;;;;;;5046162;28;19913;-74
2021/10/06 10:15:12;;;;;;;;;;;13.30;99.90;;;;;;5044383;28;19919;-75
2021/10/06 10:17:38;;;;;;;;;;;13.30;99.90;;;;;;5043183;28;20295;-75
2021/10/06 10:20:10;;;;;;;;;;;13.40;99.90;;;;;;5043424;28;19952;-74
2021/10/06 10:22:38;;;;;;;;;;;13.40;99.90;;;;;;5043390;28;19913;-74
2021/10/06 10:25:21;;;;;;;;;;;13.40;99.90;;;;;;5043462;28;19925;-74
2021/10/06 10:28:05;;;;;;;;;;;13.40;99.90;;;;;;5083426;28;20271;-74
2021/10/06 10:30:33;;;;;;;;;;;13.40;99.90;;;;;;5097004;28;19913;-75
2021/10/06 10:32:59;;;;;;;;;;;13.30;99.90;;;;;;5082482;28;20311;-74
2021/10/06 10:35:34;;;;;;;;;;;13.30;99.90;;;;;;5081661;28;19912;-75
2021/10/06 10:37:59;;;;;;;;;;;13.20;99.90;;;;;;5095316;28;20049;-75
2021/10/06 10:40:31;;;;;;;;;;;13.30;99.90;;;;;;5074024;28;20403;-74
2021/10/06 10:42:57;;;;;;;;;;;13.30;99.90;;;;;;5057802;28;20025;-75
2021/10/06 10:45:38;;;;;;;;;;;13.30;99.90;;;;;;5069959;28;19923;-75
2021/10/06 10:48:04;;;;;;;;;;;13.40;99.90;;;;;;5069849;28;19973;-75
2021/10/06 10:50:54;;;;;;;;;;;13.50;99.90;;;;;;5072917;28;19919;-75
2021/10/06 10:53:20;;;;;;;;;;;13.70;99.90;;;;;;5065965;28;19912;-75
2021/10/06 10:56:00;;;;;;;;;;;13.90;99.90;;;;;;5065196;28;19913;-75
2021/10/06 10:58:25;;;;;;;;;;;14.20;99.90;;;;;;5068169;28;19913;-75
2021/10/06 11:00:51;;;;;;;;;;;14.30;99.90;;;;;;5082497;28;19912;-75
2021/10/06 11:03:16;;;;;;;;;;;14.30;99.90;;;;;;5073365;28;19912;-75
2021/10/06 11:05:46;;;;;;;;;;;14.30;99.90;;;;;;5077875;28;19920;-75
2021/10/06 11:08:25;;;;;;;;;;;14.40;99.90;;;;;;5068554;28;20216;-76
2021/10/06 11:11:09;;;;;;;;;;;14.40;99.90;;;;;;5069764;28;20021;-76
2021/10/06 11:13:38;;;;;;;;;;;14.40;99.90;;;;;;5068364;28;19931;-76
2021/10/06 11:16:05;;;;;;;;;;;14.50;99.90;;;;;;5066418;28;19921;-77
2021/10/06 11:18:45;;;;;;;;;;;14.50;99.90;;;;;;5081349;28;19909;-76
2021/10/06 11:21:10;;;;;;;;;;;14.40;99.90;;;;;;5067868;28;19908;-76
2021/10/06 11:23:42;;;;;;;;;;;14.30;99.90;;;;;;5069297;28;20200;-76
2021/10/06 11:26:13;;;;;;;;;;;14.30;99.90;;;;;;5068409;28;20326;-76
2021/10/06 11:28:43;;;;;;;;;;;14.20;99.90;;;;;;5077744;28;20021;-76
2021/10/06 11:31:09;;;;;;;;;;;14.30;99.90;;;;;;5082305;28;20267;-77
2021/10/06 11:33:35;;;;;;;;;;;14.50;99.90;;;;;;5086297;28;19912;-77
2021/10/06 11:36:14;;;;;;;;;;;14.60;99.90;;;;;;5083462;28;20291;-78
2021/10/06 11:38:40;;;;;;;;;;;14.80;99.90;;;;;;5084450;28;19913;-78
2021/10/06 11:41:06;;;;;;;;;;;14.90;99.90;;;;;;5083397;28;20806;-77
2021/10/06 11:43:43;;;;;;;;;;;15.10;99.90;;;;;;5079958;28;20008;-77
2021/10/06 11:46:11;;;;;;;;;;;15.20;99.90;;;;;;5085839;28;19967;-78
2021/10/06 11:48:37;;;;;;;;;;;15.40;99.90;;;;;;5081839;28;20486;-77
2021/10/06 11:51:02;;;;;;;;;;;15.60;99.90;;;;;;5081869;28;19966;-79
2021/10/06 11:53:38;;;;;;;;;;;15.50;99.90;;;;;;5079214;28;20230;-78
2021/10/06 11:56:04;;;;;;;;;;;15.40;99.90;;;;;;5079563;28;19916;-77
2021/10/06 11:58:37;;;;;;;;;;;15.30;99.90;;;;;;5064581;28;19923;-78
2021/10/06 12:01:04;;;;;;;;;;;15.20;99.90;;;;;;5067456;28;19913;-79
2021/10/06 12:03:34;;;;;;;;;;;15.10;99.90;;;;;;5087116;28;20326;-79
2021/10/06 12:06:00;;;;;;;;;;;15.20;99.90;;;;;;5059555;28;19921;-79
2021/10/06 12:08:25;;;;;;;;;;;15.30;99.90;;;;;;5061800;28;19962;-81
2021/10/06 12:10:51;;;;;;;;;;;15.40;99.90;;;;;;5073491;28;20032;-77
2021/10/06 12:13:30;;;;;;;;;;;15.40;99.90;;;;;;5065291;28;20007;-81
2021/10/06 12:15:56;;;;;;;;;;;15.40;99.90;;;;;;5075283;28;19909;-77
2021/10/06 12:18:21;;;;;;;;;;;15.30;99.90;;;;;;5070512;28;19909;-79
2021/10/06 12:20:47;;;;;;;;;;;15.20;99.90;;;;;;5071228;28;19913;-75
2021/10/06 12:23:21;;;;;;;;;;;15.30;99.90;;;;;;5075227;28;19999;-76
2021/10/06 12:25:51;;;;;;;;;;;15.40;99.90;;;;;;5079556;28;20330;-79
2021/10/06 12:28:19;;;;;;;;;;;15.50;99.90;;;;;;5081028;28;19919;-75
2021/10/06 12:30:51;;;;;;;;;;;15.60;99.90;;;;;;5066579;28;19954;-78
2021/10/06 12:33:17;;;;;;;;;;;15.70;99.90;;;;;;5077560;28;20027;-81
2021/10/06 12:35:49;;;;;;;;;;;15.70;99.90;;;;;;5080682;28;20386;-76
2021/10/06 12:38:15;;;;;;;;;;;15.60;99.90;;;;;;5071236;28;19912;-78
2021/10/06 12:40:46;;;;;;;;;;;15.50;99.90;;;;;;5074348;28;19917;-80
2021/10/06 12:43:19;;;;;;;;;;;15.60;99.90;;;;;;5072207;28;19912;-79
2021/10/06 12:46:03;;;;;;;;;;;15.90;99.90;;;;;;5067030;28;20326;-81
2021/10/06 12:48:35;;;;;;;;;;;16.00;99.90;;;;;;5075146;28;20024;-77
2021/10/06 12:51:00;;;;;;;;;;;16.10;99.90;;;;;;5075455;28;19909;-80
2021/10/06 12:53:27;;;;;;;;;;;16.10;99.90;;;;;;5064629;28;20243;-81
2021/10/06 12:55:53;;;;;;;;;;;16.20;99.90;;;;;;5090126;28;19916;-76
2021/10/06 12:58:19;;;;;;;;;;;16.20;99.90;;;;;;5073982;28;20196;-76
2021/10/06 13:00:45;;;;;;;;;;;16.10;99.90;;;;;;5074104;28;19919;-79
2021/10/06 13:03:10;;;;;;;;;;;16.10;99.90;;;;;;5070164;28;19909;-85
2021/10/06 13:05:37;;;;;;;;;;;16.00;99.90;;;;;;5064987;28;20292;-82
2021/10/06 13:08:11;;;;;;;;;;;16.10;99.90;;;;;;5069499;28;19957;-82
2021/10/06 13:10:36;;;;;;;;;;;16.30;99.90;;;;;;5070654;28;19999;-77
2021/10/06 13:13:02;;;;;;;;;;;16.40;99.90;;;;;;5067260;28;20058;-80
2021/10/06 13:15:27;;;;;;;;;;;16.10;99.90;;;;;;5071647;28;19920;-81
2021/10/06 13:17:53;;;;;;;;;;;15.80;99.90;;;;;;5057802;28;20006;-79
2021/10/06 13:20:19;;;;;;;;;;;15.60;99.90;;;;;;5067555;28;19912;-76
2021/10/06 13:22:44;;;;;;;;;;;15.50;99.90;;;;;;5076452;28;19970;-77
2021/10/06 13:25:10;;;;;;;;;;;15.60;99.90;;;;;;5069887;28;20007;-82
2021/10/06 13:27:35;;;;;;;;;;;15.70;99.90;;;;;;5070006;28;20312;-78
2021/10/06 13:30:02;;;;;;;;;;;15.80;99.90;;;;;;5071449;28;19913;-76
2021/10/06 13:32:28;;;;;;;;;;;16.00;99.90;;;;;;5064615;28;20428;-79
2021/10/06 13:34:53;;;;;;;;;;;16.00;99.90;;;;;;5106922;27;19917;-77
2021/10/06 13:37:19;;;;;;;;;;;15.90;99.90;;;;;;5077440;28;20212;-79
2021/10/06 13:39:44;;;;;;;;;;;15.80;99.90;;;;;;5084346;28;20204;-77
2021/10/06 13:42:13;;;;;;;;;;;15.70;99.90;;;;;;5099350;28;20003;-79
2021/10/06 13:44:39;;;;;;;;;;;15.70;99.90;;;;;;5097622;28;19936;-79
2021/10/06 13:47:04;;;;;;;;;;;15.80;99.90;;;;;;5084095;28;19912;-86
2021/10/06 13:49:30;;;;;;;;;;;15.80;99.90;;;;;;5082308;28;19961;-79
2021/10/06 13:51:56;;;;;;;;;;;15.80;99.90;;;;;;5083441;28;20271;-88
2021/10/06 13:54:21;;;;;;;;;;;15.80;99.90;;;;;;5083521;28;19916;-85
2021/10/06 13:56:48;;;;;;;;;;;15.90;99.90;;;;;;5086077;28;19958;-80
2021/10/06 13:59:13;;;;;;;;;;;15.80;99.90;;;;;;5078213;28;19948;-81
2021/10/06 14:01:40;;;;;;;;;;;15.70;99.90;;;;;;5083524;28;19912;-84
2021/10/06 14:04:07;;;;;;;;;;;15.50;99.90;;;;;;5080974;28;19960;-78
2021/10/06 14:06:33;;;;;;;;;;;15.30;99.90;;;;;;5075833;28;19917;-91
2021/10/06 14:08:59;;;;;;;;;;;15.30;99.90;;;;;;5076376;28;19927;-81
2021/10/06 14:11:24;;;;;;;;;;;15.40;99.90;;;;;;5073775;28;19913;-84
2021/10/06 14:13:51;;;;;;;;;;;15.30;99.90;;;;;;5075181;28;19913;-83